createdAt,value
2022-08-14T00:00:37.798Z,986.84
2022-08-14T00:01:37.786Z,986.88
2022-08-14T00:02:37.703Z,986.84
2022-08-14T00:04:42.366Z,986.85
2022-08-14T00:05:37.437Z,986.83
2022-08-14T00:06:37.364Z,986.82
2022-08-14T00:07:41.929Z,986.82
2022-08-14T00:08:44.444Z,986.85
2022-08-14T00:09:55.967Z,986.80
2022-08-14T00:10:51.093Z,986.79
2022-08-14T00:11:37.003Z,986.76
2022-08-14T00:12:56.229Z,986.76
2022-08-14T00:13:36.893Z,986.75
2022-08-14T00:14:36.790Z,986.76
2022-08-14T00:16:41.106Z,986.71
2022-08-14T00:17:38.148Z,986.70
2022-08-14T00:19:06.392Z,986.71
2022-08-14T00:20:42.958Z,986.68
2022-08-14T00:21:36.280Z,986.67
2022-08-14T00:22:56.118Z,986.68
2022-08-14T00:23:36.388Z,986.69
2022-08-14T00:24:36.099Z,986.67
2022-08-14T00:25:42.046Z,986.62
2022-08-14T00:26:35.953Z,986.63
2022-08-14T00:27:38.039Z,986.59
2022-08-14T00:28:36.627Z,986.58
2022-08-14T00:29:40.588Z,986.51
2022-08-14T00:30:35.664Z,986.47
2022-08-14T00:31:35.593Z,986.47
2022-08-14T00:32:55.943Z,986.47
2022-08-14T00:33:51.595Z,986.46
2022-08-14T00:34:46.741Z,986.46
2022-08-14T00:36:48.240Z,986.47
2022-08-14T00:36:49.495Z,986.48
2022-08-14T00:37:35.354Z,986.43
2022-08-14T00:39:35.339Z,986.42
2022-08-14T00:41:35.033Z,986.42
2022-08-14T00:42:52.488Z,986.41
2022-08-14T00:44:34.648Z,986.43
2022-08-14T00:45:34.538Z,986.38
2022-08-14T00:46:34.501Z,986.37
2022-08-14T00:47:42.944Z,986.38
2022-08-14T00:48:36.778Z,986.37
2022-08-14T00:49:38.254Z,986.35
2022-08-14T00:50:34.178Z,986.34
2022-08-14T00:51:34.826Z,986.34
2022-08-14T00:52:34.032Z,986.34
2022-08-14T00:53:33.987Z,986.33
2022-08-14T00:54:34.122Z,986.29
2022-08-14T01:01:33.710Z,986.21
2022-08-14T01:02:34.255Z,986.21
2022-08-14T01:05:50.679Z,986.17
2022-08-14T01:09:32.877Z,986.22
2022-08-14T01:11:36.227Z,986.16
2022-08-14T01:14:33.576Z,986.12
2022-08-14T01:21:34.623Z,986.09
2022-08-14T01:24:34.388Z,986.09
2022-08-14T01:25:31.624Z,986.09
2022-08-14T02:05:35.638Z,985.65
2022-08-14T02:14:31.403Z,985.50
2022-08-14T02:15:27.964Z,985.50
2022-08-14T02:16:27.890Z,985.47
2022-08-14T02:17:27.817Z,985.44
2022-08-14T02:18:27.742Z,985.44
2022-08-14T02:19:27.669Z,985.41
2022-08-14T02:20:27.594Z,985.36
2022-08-14T02:21:27.520Z,985.34
2022-08-14T02:22:32.692Z,985.30
2022-08-14T02:23:32.123Z,985.28
2022-08-14T02:24:38.756Z,985.21
2022-08-14T02:25:30.939Z,985.20
2022-08-14T02:28:22.754Z,985.13
2022-08-14T02:28:25.301Z,985.13
2022-08-14T02:29:09.490Z,985.11
2022-08-14T02:30:09.416Z,985.10
2022-08-14T02:31:09.341Z,985.05
2022-08-14T02:32:09.327Z,985.04
2022-08-14T02:33:09.195Z,985.05
2022-08-14T02:34:20.086Z,984.96
2022-08-14T02:35:09.043Z,984.99
2022-08-14T02:37:05.430Z,985.04
2022-08-14T02:37:08.897Z,985.02
2022-08-14T02:38:11.485Z,985.01
2022-08-14T02:39:08.749Z,985.01
2022-08-14T02:40:08.677Z,985.05
2022-08-14T02:41:08.956Z,985.04
2022-08-14T02:42:13.221Z,985.09
2022-08-14T02:43:08.601Z,985.08
2022-08-14T02:44:08.381Z,985.10
2022-08-14T02:45:08.305Z,985.10
2022-08-14T02:46:08.232Z,985.08
2022-08-14T02:47:14.795Z,985.15
2022-08-14T02:48:10.522Z,985.18
2022-08-14T02:49:08.010Z,985.18
2022-08-14T02:50:07.940Z,985.18
2022-08-14T02:51:09.020Z,985.17
2022-08-14T02:52:26.793Z,985.14
2022-08-14T02:53:08.777Z,985.16
2022-08-14T02:54:07.940Z,985.11
2022-08-14T02:55:07.570Z,985.12
2022-08-14T02:56:29.646Z,985.12
2022-08-14T02:57:15.907Z,985.06
2022-08-14T02:58:07.353Z,985.07
2022-08-14T02:59:07.273Z,985.05
2022-08-14T03:00:09.936Z,985.05
2022-08-14T03:01:07.200Z,985.01
2022-08-14T03:02:07.084Z,985.00
2022-08-14T03:03:07.700Z,984.98
2022-08-14T03:04:06.907Z,985.00
2022-08-14T03:05:07.034Z,984.96
2022-08-14T03:06:06.759Z,984.98
2022-08-14T03:07:08.345Z,984.91
2022-08-14T03:08:06.612Z,984.91
2022-08-14T03:09:06.539Z,984.95
2022-08-14T03:10:27.458Z,984.94
2022-08-14T03:11:06.392Z,984.98
2022-08-14T03:12:06.318Z,984.96
2022-08-14T03:13:06.244Z,984.91
2022-08-14T03:14:06.171Z,984.96
2022-08-14T03:15:06.097Z,984.94
2022-08-14T03:16:08.935Z,984.93
2022-08-14T03:17:05.950Z,984.91
2022-08-14T03:18:05.878Z,984.89
2022-08-14T03:19:05.801Z,984.85
2022-08-14T03:20:05.732Z,984.86
2022-08-14T03:21:05.658Z,984.82
2022-08-14T03:22:06.698Z,984.83
2022-08-14T03:23:05.508Z,984.85
2022-08-14T03:24:05.437Z,984.81
2022-08-14T03:25:05.360Z,984.87
2022-08-14T03:26:05.287Z,984.85
2022-08-14T03:27:05.214Z,984.84
2022-08-14T03:28:05.141Z,984.85
2022-08-14T03:29:05.116Z,984.82
2022-08-14T03:30:05.357Z,984.81
2022-08-14T03:31:08.348Z,984.85
2022-08-14T03:32:04.846Z,984.81
2022-08-14T03:33:04.774Z,984.80
2022-08-14T03:34:04.698Z,984.85
2022-08-14T03:35:08.687Z,984.85
2022-08-14T03:36:07.786Z,984.90
2022-08-14T03:37:50.735Z,984.93
2022-08-14T03:39:10.782Z,984.90
2022-08-14T03:39:12.797Z,984.91
2022-08-14T03:40:04.345Z,984.95
2022-08-14T03:41:04.182Z,984.94
2022-08-14T03:42:04.110Z,984.95
2022-08-14T03:43:04.185Z,984.93
2022-08-14T03:45:19.127Z,984.91
2022-08-14T03:45:27.139Z,984.91
2022-08-14T03:46:03.814Z,984.87
2022-08-14T03:49:16.174Z,984.85
2022-08-14T03:50:27.483Z,984.85
2022-08-14T03:51:16.024Z,984.84
2022-08-14T03:52:37.869Z,984.83
2022-08-14T03:53:15.879Z,984.79
2022-08-14T03:54:20.541Z,984.82
2022-08-14T03:55:15.731Z,984.80
2022-08-14T03:57:15.582Z,984.80
2022-08-14T03:58:23.853Z,984.78
2022-08-14T03:59:17.966Z,984.76
2022-08-14T04:00:45.162Z,984.73
2022-08-14T04:01:15.373Z,984.76
2022-08-14T04:02:33.290Z,984.74
2022-08-14T04:03:23.513Z,984.73
2022-08-14T04:04:15.062Z,984.69
2022-08-14T04:05:16.468Z,984.69
2022-08-14T04:06:21.132Z,984.71
2022-08-14T04:07:14.940Z,984.70
2022-08-14T04:08:29.067Z,984.68
2022-08-14T04:09:14.695Z,984.69
2022-08-14T04:10:14.625Z,984.70
2022-08-14T04:11:14.544Z,984.68
2022-08-14T04:12:14.469Z,984.68
2022-08-14T04:13:14.396Z,984.67
2022-08-14T04:14:16.425Z,984.61
2022-08-14T04:15:14.245Z,984.61
2022-08-14T04:16:14.172Z,984.60
2022-08-14T04:17:14.111Z,984.60
2022-08-14T04:18:14.022Z,984.60
2022-08-14T04:19:13.946Z,984.59
2022-08-14T04:20:14.023Z,984.63
2022-08-14T04:21:13.800Z,984.67
2022-08-14T04:22:13.724Z,984.69
2022-08-14T04:23:15.459Z,984.65
2022-08-14T04:24:13.574Z,984.63
2022-08-14T04:25:13.498Z,984.62
2022-08-14T04:26:14.452Z,984.65
2022-08-14T04:27:13.356Z,984.64
2022-08-14T04:29:01.924Z,984.64
2022-08-14T04:29:15.591Z,984.63
2022-08-14T04:30:13.124Z,984.67
2022-08-14T04:31:13.049Z,984.64
2022-08-14T04:32:58.926Z,984.64
2022-08-14T04:33:20.348Z,984.68
2022-08-14T04:34:20.936Z,984.66
2022-08-14T04:35:12.749Z,984.66
2022-08-14T04:36:16.099Z,984.63
2022-08-14T04:37:12.601Z,984.65
2022-08-14T04:38:36.441Z,984.65
2022-08-14T04:39:12.448Z,984.61
2022-08-14T04:40:12.378Z,984.65
2022-08-14T04:41:12.305Z,984.62
2022-08-14T04:42:12.292Z,984.60
2022-08-14T04:43:13.145Z,984.58
2022-08-14T04:44:13.363Z,984.58
2022-08-14T04:45:12.000Z,984.58
2022-08-14T04:46:55.686Z,984.60
2022-08-14T04:47:11.849Z,984.56
2022-08-14T04:48:12.609Z,984.58
2022-08-14T04:49:15.033Z,984.54
2022-08-14T04:50:11.627Z,984.54
2022-08-14T04:51:11.551Z,984.53
2022-08-14T04:52:15.352Z,984.52
2022-08-14T04:53:11.399Z,984.52
2022-08-14T04:54:11.326Z,984.52
2022-08-14T04:55:11.254Z,984.52
2022-08-14T04:56:31.444Z,984.54
2022-08-14T04:57:11.103Z,984.52
2022-08-14T04:58:21.576Z,984.54
2022-08-14T04:59:11.208Z,984.54
2022-08-14T05:00:16.015Z,984.53
2022-08-14T05:01:12.741Z,984.52
2022-08-14T05:02:10.806Z,984.50
2022-08-14T05:03:10.700Z,984.49
2022-08-14T05:04:16.433Z,984.50
2022-08-14T05:05:10.502Z,984.53
2022-08-14T05:06:38.620Z,984.48
2022-08-14T05:07:10.350Z,984.50
2022-08-14T05:08:10.277Z,984.53
2022-08-14T05:09:13.865Z,984.51
2022-08-14T05:10:13.031Z,984.55
2022-08-14T05:11:12.006Z,984.54
2022-08-14T05:13:13.680Z,984.52
2022-08-14T05:13:14.381Z,984.58
2022-08-14T05:14:33.142Z,984.57
2022-08-14T05:15:09.754Z,984.57
2022-08-14T05:16:09.679Z,984.55
2022-08-14T05:17:09.603Z,984.57
2022-08-14T05:18:17.589Z,984.53
2022-08-14T05:19:18.445Z,984.59
2022-08-14T05:21:04.502Z,984.57
2022-08-14T05:22:00.193Z,984.57
2022-08-14T05:22:15.739Z,984.57
2022-08-14T05:23:11.188Z,984.53
2022-08-14T05:24:09.080Z,984.57
2022-08-14T05:25:09.006Z,984.60
2022-08-14T05:26:08.931Z,984.59
2022-08-14T05:27:08.855Z,984.58
2022-08-14T05:28:12.369Z,984.58
2022-08-14T05:29:11.626Z,984.59
2022-08-14T05:30:08.633Z,984.58
2022-08-14T05:31:08.571Z,984.56
2022-08-14T05:32:08.587Z,984.57
2022-08-14T05:33:08.410Z,984.52
2022-08-14T05:34:52.296Z,984.50
2022-08-14T05:35:53.236Z,984.52
2022-08-14T05:37:01.847Z,984.47
2022-08-14T05:37:51.871Z,984.52
2022-08-14T05:38:51.797Z,984.49
2022-08-14T05:39:51.840Z,984.49
2022-08-14T05:40:51.652Z,984.50
2022-08-14T05:41:53.749Z,984.52
2022-08-14T05:42:52.854Z,984.50
2022-08-14T05:43:51.429Z,984.52
2022-08-14T05:44:55.222Z,984.51
2022-08-14T05:45:51.278Z,984.54
2022-08-14T05:46:51.203Z,984.54
2022-08-14T05:47:51.379Z,984.54
2022-08-14T05:48:51.207Z,984.51
2022-08-14T05:49:51.401Z,984.53
2022-08-14T05:50:50.904Z,984.53
2022-08-14T05:51:50.833Z,984.54
2022-08-14T05:52:51.458Z,984.54
2022-08-14T05:54:00.153Z,984.58
2022-08-14T05:54:50.607Z,984.55
2022-08-14T05:55:50.534Z,984.58
2022-08-14T05:56:50.459Z,984.60
2022-08-14T05:57:50.383Z,984.58
2022-08-14T05:58:50.311Z,984.60
2022-08-14T05:59:50.237Z,984.57
2022-08-14T06:00:50.164Z,984.63
2022-08-14T06:01:50.438Z,984.60
2022-08-14T06:02:50.014Z,984.61
2022-08-14T06:03:49.942Z,984.60
2022-08-14T06:04:49.869Z,984.59
2022-08-14T06:05:51.976Z,984.54
2022-08-14T06:06:49.723Z,984.56
2022-08-14T06:07:49.646Z,984.57
2022-08-14T06:09:40.502Z,984.58
2022-08-14T06:10:37.014Z,984.57
2022-08-14T06:11:36.928Z,984.59
2022-08-14T06:12:56.727Z,984.58
2022-08-14T06:13:44.730Z,984.59
2022-08-14T06:14:36.712Z,984.59
2022-08-14T06:15:36.619Z,984.61
2022-08-14T06:16:36.546Z,984.60
2022-08-14T06:17:46.363Z,984.61
2022-08-14T06:18:36.400Z,984.61
2022-08-14T06:19:36.326Z,984.65
2022-08-14T06:20:36.254Z,984.65
2022-08-14T06:21:36.231Z,984.62
2022-08-14T06:22:36.265Z,984.64
2022-08-14T06:23:36.035Z,984.62
2022-08-14T06:24:35.960Z,984.62
2022-08-14T06:25:35.889Z,984.62
2022-08-14T06:26:35.816Z,984.64
2022-08-14T06:27:35.742Z,984.61
2022-08-14T06:28:35.669Z,984.64
2022-08-14T06:29:35.596Z,984.64
2022-08-14T06:30:46.019Z,984.65
2022-08-14T06:31:35.451Z,984.64
2022-08-14T06:32:37.502Z,984.60
2022-08-14T06:35:01.568Z,984.59
2022-08-14T06:35:10.768Z,984.58
2022-08-14T06:35:35.156Z,984.59
2022-08-14T06:36:35.185Z,984.55
2022-08-14T06:37:35.011Z,984.55
2022-08-14T06:38:34.942Z,984.58
2022-08-14T06:39:36.761Z,984.53
2022-08-14T06:40:34.871Z,984.53
2022-08-14T06:41:56.861Z,984.54
2022-08-14T06:42:34.649Z,984.51
2022-08-14T06:43:34.575Z,984.52
2022-08-14T06:44:34.505Z,984.51
2022-08-14T06:45:34.431Z,984.54
2022-08-14T06:46:37.187Z,984.51
2022-08-14T06:47:34.285Z,984.50
2022-08-14T06:48:34.213Z,984.50
2022-08-14T06:49:40.292Z,984.47
2022-08-14T06:50:34.068Z,984.42
2022-08-14T06:51:38.957Z,984.44
2022-08-14T06:52:33.924Z,984.38
2022-08-14T06:53:33.851Z,984.39
2022-08-14T06:54:33.780Z,984.38
2022-08-14T06:55:33.906Z,984.39
2022-08-14T06:56:33.635Z,984.35
2022-08-14T06:57:33.559Z,984.39
2022-08-14T06:58:33.489Z,984.32
2022-08-14T06:59:33.888Z,984.31
2022-08-14T07:00:33.365Z,984.28
2022-08-14T07:01:33.324Z,984.28
2022-08-14T07:02:33.201Z,984.28
2022-08-14T07:03:33.126Z,984.27
2022-08-14T07:04:33.053Z,984.27
2022-08-14T07:05:32.981Z,984.21
2022-08-14T07:06:46.228Z,984.19
2022-08-14T07:07:32.987Z,984.14
2022-08-14T07:08:32.765Z,984.18
2022-08-14T07:09:44.358Z,984.20
2022-08-14T07:10:32.620Z,984.20
2022-08-14T07:11:32.550Z,984.20
2022-08-14T07:12:34.793Z,984.14
2022-08-14T07:13:32.403Z,984.13
2022-08-14T07:14:33.748Z,984.08
2022-08-14T07:15:33.635Z,984.07
2022-08-14T07:16:32.187Z,984.07
2022-08-14T07:17:34.410Z,984.05
2022-08-14T07:18:32.050Z,984.00
2022-08-14T07:25:32.572Z,983.90
2022-08-14T07:26:29.545Z,983.87
2022-08-14T07:27:28.813Z,983.83
2022-08-14T07:28:28.744Z,983.80
2022-08-14T07:29:29.025Z,983.82
2022-08-14T07:30:34.536Z,983.78
2022-08-14T07:31:28.526Z,983.81
2022-08-14T07:32:33.849Z,983.85
2022-08-14T07:33:30.066Z,983.84
2022-08-14T07:34:40.717Z,983.81
2022-08-14T07:35:30.489Z,983.88
2022-08-14T07:36:30.531Z,983.88
2022-08-14T07:37:28.097Z,983.89
2022-08-14T07:38:34.020Z,983.93
2022-08-14T07:39:28.123Z,983.88
2022-08-14T07:40:29.829Z,983.85
2022-08-14T07:41:33.632Z,983.89
2022-08-14T07:42:27.890Z,983.88
2022-08-14T07:43:27.668Z,983.91
2022-08-14T07:44:32.869Z,983.93
2022-08-14T07:45:27.559Z,983.91
2022-08-14T07:46:29.577Z,983.94
2022-08-14T07:47:27.414Z,983.97
2022-08-14T07:48:27.346Z,983.93
2022-08-14T07:49:27.983Z,983.94
2022-08-14T07:52:30.788Z,983.93
2022-08-14T07:53:26.950Z,983.93
2022-08-14T07:54:30.143Z,983.93
2022-08-14T07:55:29.003Z,983.93
2022-08-14T07:56:47.510Z,983.99
2022-08-14T07:57:26.672Z,983.98
2022-08-14T07:58:34.622Z,983.97
2022-08-14T07:59:41.028Z,983.97
2022-08-14T08:00:31.354Z,984.00
2022-08-14T08:01:26.986Z,983.96
2022-08-14T08:02:26.309Z,983.98
2022-08-14T08:03:26.268Z,983.96
2022-08-14T08:04:27.200Z,983.96
2022-08-14T08:05:26.093Z,983.96
2022-08-14T08:06:26.023Z,983.95
2022-08-14T08:07:29.779Z,983.92
2022-08-14T08:08:27.415Z,983.92
2022-08-14T08:09:31.719Z,983.97
2022-08-14T08:10:46.583Z,983.99
2022-08-14T08:11:25.667Z,983.95
2022-08-14T08:12:30.095Z,983.95
2022-08-14T08:13:25.528Z,983.93
2022-08-14T08:14:25.455Z,983.98
2022-08-14T08:15:25.381Z,984.00
2022-08-14T08:16:25.311Z,984.02
2022-08-14T08:17:25.241Z,984.03
2022-08-14T08:18:27.518Z,984.01
2022-08-14T08:19:25.098Z,983.96
2022-08-14T08:20:25.032Z,983.95
2022-08-14T08:21:26.995Z,983.92
2022-08-14T08:27:08.784Z,983.87
2022-08-14T08:28:08.945Z,983.88
2022-08-14T08:29:08.624Z,983.88
2022-08-14T08:30:10.292Z,983.89
2022-08-14T08:31:08.481Z,983.88
2022-08-14T08:32:08.845Z,983.91
2022-08-14T08:34:14.411Z,983.88
2022-08-14T08:36:08.227Z,983.88
2022-08-14T08:37:08.031Z,983.89
2022-08-14T08:38:14.277Z,983.87
2022-08-14T08:39:17.486Z,983.90
2022-08-14T08:40:07.892Z,983.88
2022-08-14T08:43:33.547Z,983.82
2022-08-14T08:44:34.245Z,983.81
2022-08-14T08:45:33.294Z,983.77
2022-08-14T08:46:33.204Z,983.80
2022-08-14T08:48:17.996Z,983.75
2022-08-14T08:49:15.535Z,983.75
2022-08-14T08:50:23.091Z,983.75
2022-08-14T08:51:15.393Z,983.76
2022-08-14T08:52:25.165Z,983.78
2022-08-14T08:53:15.253Z,983.72
2022-08-14T08:54:18.498Z,983.75
2022-08-14T08:55:15.112Z,983.74
2022-08-14T08:56:16.856Z,983.77
2022-08-14T08:57:15.698Z,983.81
2022-08-14T08:58:16.361Z,983.81
2022-08-14T08:59:15.275Z,983.80
2022-08-14T09:00:25.196Z,983.84
2022-08-14T09:03:14.589Z,983.84
2022-08-14T09:04:17.591Z,983.83
2022-08-14T09:05:14.651Z,983.80
2022-08-14T09:07:01.352Z,983.76
2022-08-14T09:07:14.269Z,983.74
2022-08-14T09:08:31.251Z,983.75
2022-08-14T09:09:14.131Z,983.76
2022-08-14T09:10:14.062Z,983.75
2022-08-14T09:11:18.851Z,983.74
2022-08-14T09:12:15.118Z,983.76
2022-08-14T09:13:14.292Z,983.73
2022-08-14T09:14:14.019Z,983.71
2022-08-14T09:15:13.755Z,983.71
2022-08-14T09:16:19.315Z,983.70
2022-08-14T09:17:13.775Z,983.67
2022-08-14T09:18:13.537Z,983.69
2022-08-14T09:19:13.774Z,983.68
2022-08-14T09:20:13.601Z,983.67
2022-08-14T09:21:13.291Z,983.63
2022-08-14T09:22:35.681Z,983.66
2022-08-14T09:23:13.152Z,983.61
2022-08-14T09:24:29.225Z,983.61
2022-08-14T09:25:15.114Z,983.58
2022-08-14T09:26:21.054Z,983.60
2022-08-14T09:27:23.419Z,983.61
2022-08-14T09:28:12.803Z,983.56
2022-08-14T09:29:12.735Z,983.54
2022-08-14T09:30:32.049Z,983.53
2022-08-14T09:31:17.632Z,983.52
2022-08-14T09:32:59.339Z,983.57
2022-08-14T09:33:13.049Z,983.55
2022-08-14T09:34:27.281Z,983.55
2022-08-14T09:35:12.317Z,983.47
2022-08-14T09:36:12.247Z,983.47
2022-08-14T09:37:12.180Z,983.41
2022-08-14T09:38:15.430Z,983.37
2022-08-14T09:39:22.845Z,983.36
2022-08-14T09:40:20.780Z,983.35
2022-08-14T09:41:12.014Z,983.41
2022-08-14T09:42:20.386Z,983.39
2022-08-14T09:43:11.759Z,983.41
2022-08-14T09:44:11.689Z,983.43
2022-08-14T09:45:11.625Z,983.42
2022-08-14T09:46:11.552Z,983.43
2022-08-14T09:47:11.479Z,983.39
2022-08-14T09:48:11.411Z,983.40
2022-08-14T09:49:16.323Z,983.37
2022-08-14T09:50:11.270Z,983.32
2022-08-14T09:51:11.202Z,983.39
2022-08-14T09:52:23.693Z,983.36
2022-08-14T09:53:18.247Z,983.33
2022-08-14T09:54:19.240Z,983.33
2022-08-14T09:55:10.924Z,983.29
2022-08-14T09:56:11.106Z,983.29
2022-08-14T09:57:10.836Z,983.29
2022-08-14T09:58:19.165Z,983.25
2022-08-14T09:59:10.647Z,983.23
2022-08-14T10:00:12.148Z,983.25
2022-08-14T10:01:10.506Z,983.32
2022-08-14T10:05:26.136Z,983.20
2022-08-14T10:06:28.258Z,983.19
2022-08-14T10:07:25.998Z,983.15
2022-08-14T10:08:26.894Z,983.17
2022-08-14T10:09:25.859Z,983.14
2022-08-14T10:10:25.851Z,983.18
2022-08-14T10:11:25.719Z,983.14
2022-08-14T10:12:28.725Z,983.10
2022-08-14T10:13:25.583Z,983.09
2022-08-14T10:14:29.466Z,983.15
2022-08-14T10:15:25.452Z,983.10
2022-08-14T10:16:27.425Z,983.08
2022-08-14T10:17:25.306Z,983.01
2022-08-14T10:18:25.239Z,983.02
2022-08-14T10:19:25.167Z,983.01
2022-08-14T10:20:40.226Z,983.01
2022-08-14T10:21:25.030Z,982.95
2022-08-14T10:23:14.896Z,982.95
2022-08-14T10:23:26.023Z,982.95
2022-08-14T10:24:36.401Z,982.99
2022-08-14T10:25:24.755Z,982.95
2022-08-14T10:26:28.533Z,983.02
2022-08-14T10:27:24.620Z,982.99
2022-08-14T10:29:24.515Z,982.97
2022-08-14T11:10:40.858Z,982.59
2022-08-14T11:11:39.750Z,982.59
2022-08-14T11:12:46.234Z,982.56
2022-08-14T11:13:39.630Z,982.64
2022-08-14T11:14:42.160Z,982.48
2022-08-14T11:15:39.472Z,982.51
2022-08-14T11:16:40.705Z,982.45
2022-08-14T11:17:39.337Z,982.50
2022-08-14T11:18:39.973Z,982.51
2022-08-14T11:19:39.201Z,982.59
2022-08-14T11:20:39.132Z,982.52
2022-08-14T11:21:39.068Z,982.47
2022-08-14T11:27:40.922Z,982.34
2022-08-14T11:32:04.192Z,982.21
2022-08-14T11:33:04.126Z,982.11
2022-08-14T11:34:04.060Z,982.06
2022-08-14T11:35:04.335Z,982.00
2022-08-14T11:37:19.067Z,981.95
2022-08-14T11:38:03.791Z,981.97
2022-08-14T11:39:03.723Z,981.97
2022-08-14T11:40:03.739Z,981.95
2022-08-14T11:42:56.298Z,982.01
2022-08-14T11:43:22.610Z,982.02
2022-08-14T11:44:45.881Z,981.98
2022-08-14T11:46:30.292Z,982.00
2022-08-14T11:47:20.783Z,982.02
2022-08-14T11:49:01.989Z,982.06
2022-08-14T11:49:22.088Z,982.09
2022-08-14T11:50:33.646Z,982.09
2022-08-14T11:51:20.512Z,982.06
2022-08-14T11:52:21.615Z,982.03
2022-08-14T11:53:20.397Z,982.03
2022-08-14T11:54:20.370Z,982.02
2022-08-14T11:55:53.474Z,981.92
2022-08-14T11:56:25.324Z,981.94
2022-08-14T11:57:20.116Z,981.98
2022-08-14T11:58:24.108Z,982.02
2022-08-14T11:59:19.988Z,981.98
2022-08-14T12:00:19.951Z,981.94
2022-08-14T12:01:19.858Z,981.89
2022-08-14T12:03:00.441Z,981.93
2022-08-14T12:03:27.185Z,981.91
2022-08-14T12:05:04.114Z,981.95
2022-08-14T12:06:02.095Z,982.04
2022-08-14T12:07:02.029Z,982.06
2022-08-14T12:08:06.621Z,981.99
2022-08-14T12:09:01.905Z,981.94
2022-08-14T12:10:01.841Z,982.02
2022-08-14T12:11:01.782Z,982.06
2022-08-14T12:14:29.973Z,982.19
2022-08-14T12:15:27.378Z,982.19
2022-08-14T12:17:27.455Z,982.22
2022-08-14T12:18:28.019Z,982.19
2022-08-14T12:19:27.096Z,982.17
2022-08-14T12:20:32.632Z,982.24
2022-08-14T12:21:29.426Z,982.24
2022-08-14T12:22:30.448Z,982.32
2022-08-14T12:23:27.627Z,982.29
2022-08-14T12:24:35.830Z,982.29
2022-08-14T12:25:27.555Z,982.33
2022-08-14T12:26:40.136Z,982.29
2022-08-14T12:27:26.634Z,982.35
2022-08-14T12:28:27.302Z,982.35
2022-08-14T12:29:26.517Z,982.34
2022-08-14T12:30:26.830Z,981.86
2022-08-14T12:31:26.666Z,982.39
2022-08-14T12:32:26.348Z,982.34
2022-08-14T12:33:30.735Z,982.45
2022-08-14T12:34:26.235Z,982.46
2022-08-14T12:35:26.174Z,982.48
2022-08-14T12:36:26.169Z,982.45
2022-08-14T12:37:26.061Z,981.51
2022-08-14T12:38:26.007Z,982.22
2022-08-14T12:39:25.980Z,982.41
2022-08-14T12:40:25.905Z,982.40
2022-08-14T12:41:28.176Z,982.43
2022-08-14T12:42:34.723Z,981.46
2022-08-14T12:43:25.721Z,981.45
2022-08-14T12:44:25.668Z,981.57
2022-08-14T12:45:25.610Z,982.51
2022-08-14T12:46:27.070Z,982.34
2022-08-14T12:47:25.494Z,982.29
2022-08-14T12:48:31.956Z,982.36
2022-08-14T12:49:25.957Z,982.28
2022-08-14T12:50:25.322Z,982.34
2022-08-14T12:51:27.204Z,982.26
2022-08-14T12:52:35.934Z,982.28
2022-08-14T12:53:25.154Z,982.30
2022-08-14T12:54:28.407Z,982.26
2022-08-14T12:55:32.382Z,982.17
2022-08-14T12:56:34.032Z,982.11
2022-08-14T12:57:24.926Z,982.09
2022-08-14T12:58:29.241Z,982.01
2022-08-14T12:59:24.815Z,981.97
2022-08-14T13:00:24.782Z,981.95
2022-08-14T13:01:24.803Z,981.16
2022-08-14T13:02:26.474Z,981.69
2022-08-14T13:03:24.594Z,982.04
2022-08-14T13:04:24.543Z,981.86
2022-08-14T13:05:24.485Z,982.00
2022-08-14T13:06:24.441Z,981.91
2022-08-14T13:07:24.371Z,981.96
2022-08-14T13:08:32.944Z,981.88
2022-08-14T13:09:24.257Z,981.85
2022-08-14T13:11:15.138Z,981.79
2022-08-14T14:03:43.504Z,980.50
2022-08-14T14:04:46.188Z,980.29
2022-08-14T14:05:52.835Z,980.29
2022-08-14T14:06:43.324Z,980.69
2022-08-14T14:07:43.419Z,980.72
2022-08-14T14:08:47.482Z,980.66
2022-08-14T14:09:52.839Z,980.69
2022-08-14T14:10:43.096Z,980.63
2022-08-14T14:11:43.042Z,980.56
2022-08-14T14:12:42.983Z,980.57
2022-08-14T14:13:44.864Z,980.54
2022-08-14T14:14:50.898Z,980.54
2022-08-14T14:15:48.612Z,980.49
2022-08-14T14:16:42.753Z,980.42
2022-08-14T14:17:44.113Z,980.44
2022-08-14T14:18:42.648Z,980.33
2022-08-14T14:19:42.585Z,980.50
2022-08-14T14:20:42.628Z,980.43
2022-08-14T14:21:42.471Z,980.34
2022-08-14T14:23:02.294Z,980.38
2022-08-14T14:23:42.360Z,980.42
2022-08-14T14:24:42.304Z,980.42
2022-08-14T14:25:46.339Z,980.37
2022-08-14T14:26:42.192Z,980.32
2022-08-14T14:27:42.131Z,980.12
2022-08-14T14:28:42.099Z,980.00
2022-08-14T14:29:42.021Z,979.97
2022-08-14T14:30:52.497Z,979.96
2022-08-14T14:31:41.907Z,979.92
2022-08-14T14:33:01.944Z,980.00
2022-08-14T14:33:46.888Z,980.19
2022-08-14T14:34:41.739Z,980.18
2022-08-14T14:35:41.682Z,980.20
2022-08-14T14:36:41.630Z,980.18
2022-08-14T14:37:41.572Z,979.90
2022-08-14T14:38:41.522Z,980.05
2022-08-14T14:40:52.431Z,980.12
2022-08-14T14:40:52.590Z,980.15
2022-08-14T14:41:43.861Z,980.18
2022-08-14T14:42:41.333Z,980.13
2022-08-14T14:43:41.216Z,980.10
2022-08-14T14:44:41.157Z,979.93
2022-08-14T14:45:41.100Z,979.93
2022-08-14T14:46:41.444Z,979.93
2022-08-14T14:48:40.925Z,979.97
2022-08-14T14:49:51.309Z,979.95
2022-08-14T14:50:41.251Z,979.90
2022-08-14T14:51:43.355Z,979.98
2022-08-14T14:52:43.309Z,979.87
2022-08-14T14:53:40.626Z,979.89
2022-08-14T14:54:40.566Z,979.91
2022-08-14T14:55:59.558Z,979.93
2022-08-14T14:56:50.166Z,980.00
2022-08-14T14:57:41.799Z,980.04
2022-08-14T14:58:40.322Z,979.87
2022-08-14T14:59:40.260Z,979.87
2022-08-14T15:00:40.198Z,979.99
2022-08-14T15:01:40.216Z,979.83
2022-08-14T15:02:40.073Z,979.82
2022-08-14T15:04:43.813Z,979.75
2022-08-14T15:05:39.888Z,979.77
2022-08-14T15:06:47.467Z,979.74
2022-08-14T15:07:39.775Z,979.82
2022-08-14T15:08:55.719Z,979.79
2022-08-14T15:09:39.638Z,979.75
2022-08-14T15:10:40.036Z,979.78
2022-08-14T15:11:39.514Z,979.76
2022-08-14T15:12:56.302Z,979.75
2022-08-14T15:13:43.346Z,979.74
2022-08-14T15:14:56.302Z,979.74
2022-08-14T15:15:39.711Z,979.80
2022-08-14T15:16:39.197Z,979.79
2022-08-14T15:17:41.366Z,979.78
2022-08-14T15:18:46.832Z,979.79
2022-08-14T15:19:39.647Z,979.74
2022-08-14T15:20:38.944Z,979.83
2022-08-14T15:21:38.879Z,979.84
2022-08-14T15:22:38.815Z,979.78
2022-08-14T15:23:44.034Z,979.79
2022-08-14T15:24:38.688Z,979.83
2022-08-14T15:25:38.620Z,979.76
2022-08-14T15:26:38.559Z,979.79
2022-08-14T15:27:38.496Z,979.75
2022-08-14T15:28:38.953Z,979.71
2022-08-14T15:29:38.367Z,979.69
2022-08-14T15:30:38.306Z,979.64
2022-08-14T15:31:38.781Z,979.66
2022-08-14T15:32:38.186Z,979.74
2022-08-14T15:33:38.119Z,979.73
2022-08-14T15:34:44.973Z,979.79
2022-08-14T15:35:46.069Z,979.79
2022-08-14T15:36:37.928Z,979.72
2022-08-14T15:37:42.312Z,979.75
2022-08-14T15:39:38.546Z,979.78
2022-08-14T15:43:37.498Z,979.74
2022-08-14T15:44:44.792Z,979.73
2022-08-14T15:45:37.367Z,979.68
2022-08-14T15:46:43.382Z,979.68
2022-08-14T15:47:41.510Z,979.69
2022-08-14T15:48:37.182Z,979.65
2022-08-14T16:23:36.166Z,979.53
2022-08-14T16:24:30.063Z,979.49
2022-08-14T16:25:35.541Z,979.49
2022-08-14T16:26:33.257Z,979.51
2022-08-14T16:27:38.951Z,979.46
2022-08-14T16:28:29.810Z,979.44
2022-08-14T16:29:29.932Z,979.45
2022-08-14T16:30:29.683Z,979.45
2022-08-14T16:31:35.661Z,979.43
2022-08-14T16:32:32.627Z,979.45
2022-08-14T16:33:59.863Z,979.43
2022-08-14T16:34:45.371Z,979.40
2022-08-14T16:35:42.611Z,979.38
2022-08-14T16:36:30.462Z,979.34
2022-08-14T16:37:34.289Z,979.35
2022-08-14T16:40:43.528Z,979.30
2022-08-14T16:41:45.624Z,979.30
2022-08-14T16:43:30.463Z,979.29